Umpqua, Oregon
Current Conditions -  °F | °C
As of 2:53 AM on Monday 20 Oct 2014 (Local Time) from KRBG Reporting Station
Light Rain Light Rain  
Wind Chill: 60°   Ceiling: 5000
Heat Index: 60°   Visibility: 6mi
Dew Point: 55°   Wind: 5mph
Humidity: 83%   Direction: 10°N
Pressure: 29.77"   Gusts: NA
Location:  43.37°N, 123.47°W
Report Text: KRBG 200953Z AUTO 01004KT 6SM -RA FEW042 BKN050 OVC065 16/13 A2977 RMK AO2 SLP078 P0003 T01560128 $
Loading
Personal Weather Stations






























Interactive Weather Map
Tropical Storm Tracking
New forecast layout! Learn more

10-Day Weather Forecast

Advertisements
Track Severe Weather on mobile